Costa Pacifica — ICJA — position and weather

sailwx.info

Track history (hours):
 
Tides and Currents Weather Stations Pressure Air Temp Water Temp Dewpoint Dewpoint Depression Visibility Wind Speed Wind Dir Waves Ship Positions

Costa Pacifica

Last reported at 2018-Jul-22 06:59 UTC. Time now 2018-Jul-22 07:02 UTC.
Position N 54°32' E 018°33'.

Length 290 m; draft 8.3 m.

Type: Ship. MMSI: 247258100.

Date/timePositionNaut miles runAvg speedWind from/ knotsBaromVisibWave heightAir tempDewpointWater temp
2018-Jul-22 06:59N 54°32' E 018°33'0 0.0
2018-Jul-22 06:29N 54°32' E 018°33'0 0.0
2018-Jul-22 05:58N 54°32' E 018°33'0 0.0
2018-Jul-22 05:28N 54°32' E 018°33'0 0.0
2018-Jul-22 04:58N 54°32' E 018°33'0 0.0
2018-Jul-22 04:29N 54°32' E 018°33'1 1.1
2018-Jul-22 04:00N 54°32' E 018°34'4 8.4
2018-Jul-22 03:30N 54°32' E 018°41'4 8.9
2018-Jul-22 03:00N 54°33' E 018°49'713.2
2018-Jul-22 02:30N 54°39' E 018°55'713.1
2018-Jul-22 02:00N 54°45' E 018°59'612.8
2018-Jul-22 01:30N 54°51' E 019°04'612.6
2018-Jul-22 01:00N 54°56' E 019°08'612.4
2018-Jul-22 00:30N 55°01' E 019°01'713.1
2018-Jul-22 00:00N 55°05' E 018°52'612.5
2018-Jul-21 23:30N 55°11' E 018°50'713.0
2018-Jul-21 23:00N 55°17' E 018°56'612.6
2018-Jul-21 22:30N 55°23' E 018°60'713.2
2018-Jul-21 22:00N 55°28' E 018°52'713.2
2018-Jul-21 21:30N 55°33' E 018°44'612.0
2018-Jul-21 21:00N 55°38' E 018°49'611.9
2018-Jul-21 20:30N 55°43' E 018°57'612.8
2018-Jul-21 20:00N 55°49' E 018°56'612.4
2018-Jul-21 19:30N 55°55' E 018°53'612.6
2018-Jul-21 19:00N 55°56' E 018°42'612.7
2018-Jul-21 18:30N 55°56' E 018°31'612.8
2018-Jul-21 18:00N 55°56' E 018°19'613.0
2018-Jul-21 17:30N 55°56' E 018°08'612.9
2018-Jul-21 17:00N 55°56' E 017°56'612.9
2018-Jul-21 16:31N 55°55' E 017°45'612.9
2018-Jul-21 16:00N 55°54' E 017°34'612.9
2018-Jul-21 15:30N 55°52' E 017°22'612.8
2018-Jul-21 15:00N 55°51' E 017°11'612.7
2018-Jul-21 14:30N 55°49' E 017°00'1212.5
2018-Jul-21 13:30N 55°46' E 016°39'612.4
2018-Jul-21 13:00N 55°45' E 016°28'612.4
2018-Jul-21 12:30N 55°43' E 016°17'612.5
2018-Jul-21 12:00N 55°42' E 016°07'612.6
2018-Jul-21 11:30N 55°40' E 015°56'612.7
2018-Jul-21 11:00N 55°39' E 015°45'612.6
2018-Jul-21 10:30N 55°37' E 015°34'612.2
2018-Jul-21 10:00N 55°35' E 015°24'612.2
2018-Jul-21 09:30N 55°33' E 015°14'612.8
2018-Jul-21 09:00N 55°30' E 015°04'612.9
2018-Jul-21 08:30N 55°27' E 014°54'612.8
2018-Jul-21 08:00N 55°24' E 014°43'612.4
2018-Jul-21 07:30N 55°20' E 014°35'612.5
2018-Jul-21 07:00N 55°15' E 014°29'612.2
2018-Jul-21 06:30N 55°11' E 014°22'712.6
2018-Jul-21 05:59N 55°05' E 014°15'612.5
2018-Jul-21 05:30N 55°01' E 014°08'612.7
2018-Jul-21 05:00N 54°58' E 013°58'812.7
2018-Jul-21 04:24N 54°56' E 013°45'712.7
2018-Jul-21 03:49N 54°54' E 013°33'412.6
2018-Jul-21 03:30N 54°53' E 013°26'612.4
2018-Jul-21 03:00N 54°51' E 013°16'612.5
2018-Jul-21 02:30N 54°49' E 013°05'612.8
2018-Jul-21 02:00N 54°47' E 012°55'612.8
2018-Jul-21 01:30N 54°45' E 012°44'612.3
2018-Jul-21 01:00N 54°42' E 012°35'612.5
2018-Jul-21 00:30N 54°38' E 012°26'612.4
2018-Jul-21 00:00N 54°35' E 012°18'612.5
2018-Jul-20 23:30N 54°29' E 012°15'611.7
2018-Jul-20 23:00N 54°25' E 012°07'612.6
2018-Jul-20 22:30N 54°25' E 011°57'612.6
2018-Jul-20 22:00N 54°25' E 011°46'713.0
2018-Jul-20 21:30N 54°28' E 011°36'612.9
2018-Jul-20 21:00N 54°31' E 011°26'613.0
2018-Jul-20 20:30N 54°34' E 011°16'612.5
2018-Jul-20 20:00N 54°35' E 011°05'612.8
2018-Jul-20 19:30N 54°35' E 010°54'613.0
2018-Jul-20 19:00N 54°34' E 010°43'612.5
2018-Jul-20 18:30N 54°33' E 010°33'612.6
2018-Jul-20 18:00N 54°30' E 010°23'611.6
2018-Jul-20 17:30N 54°27' E 010°15'8 0.7
2018-Jul-20 06:19N 54°20' E 010°09'0 0.0
2018-Jul-20 05:43N 54°20' E 010°09'0 0.0
2018-Jul-20 05:28N 54°20' E 010°09'0 0.7
2018-Jul-20 05:01N 54°20' E 010°09'4 7.2
2018-Jul-20 04:30N 54°23' E 010°12'611.9
2018-Jul-20 04:00N 54°29' E 010°16'611.1
2018-Jul-20 03:30N 54°31' E 010°24'612.3
2018-Jul-20 03:00N 54°34' E 010°33'611.5
2018-Jul-20 02:30N 54°37' E 010°42'713.1
2018-Jul-20 02:01N 54°41' E 010°50'713.2
2018-Jul-20 01:30N 54°48' E 010°52'713.5
2018-Jul-20 01:00N 54°55' E 010°53'713.6
2018-Jul-20 00:30N 54°60' E 011°01'713.7
2018-Jul-20 00:00N 55°07' E 011°02'613.0
2018-Jul-19 23:30N 55°13' E 011°06'713.7
2018-Jul-19 23:00N 55°19' E 011°02'1713.5
2018-Jul-19 21:46N 55°34' E 010°49'7814.4
2018-Jul-19 16:21N 56°44' E 011°51'919.2
2018-Jul-19 15:54N 56°53' E 011°48'819.3
2018-Jul-19 15:30N 56°60' E 011°43'1019.2
2018-Jul-19 15:00N 57°09' E 011°37'1019.3
2018-Jul-19 14:30N 57°18' E 011°31'1918.9
2018-Jul-19 13:30N 57°34' E 011°12'1019.3
2018-Jul-19 13:00N 57°40' E 010°59'1019.7
2018-Jul-19 12:30N 57°47' E 010°45'1121.7
2018-Jul-19 12:00N 57°48' E 010°25'1020.9
2018-Jul-19 11:30N 57°48' E 010°05'1020.5
2018-Jul-19 11:00N 57°48' E 009°46'1020.1
2018-Jul-19 10:30N 57°47' E 009°27'1020.5
2018-Jul-19 10:00N 57°46' E 009°08'1020.6
2018-Jul-19 09:30N 57°44' E 008°49'1020.2
2018-Jul-19 09:00N 57°42' E 008°30'1720.1
2018-Jul-19 08:08N 57°42' E 007°58'1419.8
2018-Jul-19 07:26N 57°42' E 007°32'919.6
2018-Jul-19 07:00N 57°42' E 007°16'2818.8
2018-Jul-19 05:30N 57°47' E 006°24'2720.1
2018-Jul-19 04:08N 58°05' E 005°46'919.7
2018-Jul-19 03:42N 58°11' E 005°32'419.9
2018-Jul-19 03:30N 58°13' E 005°27'1120.3
2018-Jul-19 02:57N 58°21' E 005°12'919.7
2018-Jul-19 02:30N 58°27' E 005°01'1119.9
2018-Jul-19 01:57N 58°35' E 004°46'920.1
2018-Jul-19 01:30N 58°42' E 004°35'11317.8
2018-Jul-18 19:11N 60°35' E 004°22'319.3
2018-Jul-18 19:00N 60°37' E 004°26'918.6
2018-Jul-18 18:30N 60°45' E 004°38'714.2
2018-Jul-18 18:00N 60°41' E 004°50'918.9
2018-Jul-18 17:30N 60°32' E 004°57'917.4
2018-Jul-18 17:00N 60°25' E 005°06'611.2
2018-Jul-18 16:30N 60°24' E 005°17'1 1.7
2018-Jul-18 16:00N 60°24' E 005°19'0 0.0
2018-Jul-18 15:30N 60°24' E 005°19'0 0.0
2018-Jul-18 15:00N 60°24' E 005°19'0 0.0
2018-Jul-18 14:29N 60°24' E 005°19'0 0.0
2018-Jul-18 13:29N 60°24' E 005°19'0 0.0
2018-Jul-18 12:59N 60°24' E 005°19'0 0.0
2018-Jul-18 12:29N 60°24' E 005°19'0 0.0
2018-Jul-18 11:58N 60°24' E 005°19'0 0.0
2018-Jul-18 11:28N 60°24' E 005°19'0 0.0
2018-Jul-18 10:28N 60°24' E 005°19'0 0.0
2018-Jul-18 10:01N 60°24' E 005°19'0 0.0
2018-Jul-18 09:30N 60°24' E 005°19'0 0.0
2018-Jul-18 09:00N 60°24' E 005°19'0 0.0
2018-Jul-18 08:30N 60°24' E 005°19'0 0.0
2018-Jul-18 08:00N 60°24' E 005°19'0 0.0
2018-Jul-18 07:29N 60°24' E 005°19'0 0.0
2018-Jul-18 06:59N 60°24' E 005°19'0 0.0
2018-Jul-18 06:29N 60°24' E 005°19'0 0.0
2018-Jul-18 05:59N 60°24' E 005°19'0 0.0
2018-Jul-18 05:30N 60°24' E 005°19'1 2.3
2018-Jul-18 05:00N 60°24' E 005°17'4 8.9
2018-Jul-18 04:30N 60°24' E 005°08'611.8
2018-Jul-18 03:59N 60°29' E 004°60'918.3
2018-Jul-18 03:30N 60°37' E 004°53'816.5
2018-Jul-18 03:00N 60°44' E 004°44'612.7
2018-Jul-18 02:29N 60°47' E 004°32'816.4
2018-Jul-18 02:00N 60°53' E 004°23'918.4
2018-Jul-18 01:30N 61°02' E 004°19'918.5
2018-Jul-18 01:00N 61°12' E 004°20'918.5
2018-Jul-18 00:30N 61°21' E 004°21'1018.6
2018-Jul-18 00:00N 61°30' E 004°21'918.7
2018-Jul-17 23:30N 61°39' E 004°23'1018.8
2018-Jul-17 22:59N 61°48' E 004°30'919.0
2018-Jul-17 22:30N 61°57' E 004°38'814.9
2018-Jul-17 22:00N 62°04' E 004°44'612.7
2018-Jul-17 21:30N 62°10' E 004°49'612.7
2018-Jul-17 20:59N 62°15' E 004°57'613.1
2018-Jul-17 20:30N 62°20' E 005°07'612.8
2018-Jul-17 19:59N 62°24' E 005°17'613.1
2018-Jul-17 19:30N 62°28' E 005°28'713.2
2018-Jul-17 19:00N 62°30' E 005°41'917.5
2018-Jul-17 18:30N 62°27' E 005°59'511.0
2018-Jul-17 18:00N 62°30' E 006°09'611.9
2018-Jul-17 17:30N 62°36' E 006°09'3 5.8
2018-Jul-17 17:00N 62°38' E 006°12'815.3
2018-Jul-17 16:30N 62°38' E 006°29'1019.2
2018-Jul-17 16:00N 62°40' E 006°49'917.1
2018-Jul-17 15:30N 62°40' E 007°08'10 0.9
2018-Jul-17 04:33N 62°35' E 007°26'315.6
2018-Jul-17 04:22N 62°37' E 007°22'717.5
2018-Jul-17 04:00N 62°40' E 007°09'816.0
2018-Jul-17 03:30N 62°46' E 006°57'714.4
2018-Jul-17 03:00N 62°53' E 006°56'714.6
2018-Jul-17 02:30N 62°59' E 006°46'714.0
2018-Jul-17 02:00N 63°05' E 006°40'612.9
2018-Jul-17 01:30N 63°10' E 006°31'713.2
2018-Jul-17 01:00N 63°15' E 006°40'713.5
2018-Jul-17 00:30N 63°20' E 006°51'1312.6
2018-Jul-16 23:30N 63°15' E 007°17'713.4
2018-Jul-16 23:00N 63°15' E 007°32'917.6
2018-Jul-16 22:30N 63°13' E 007°51'918.9
2018-Jul-16 22:00N 63°17' E 008°10'1019.0
2018-Jul-16 21:30N 63°23' E 008°26'1019.3
2018-Jul-16 21:00N 63°27' E 008°46'1019.6
2018-Jul-16 20:30N 63°30' E 009°07'1019.4
2018-Jul-16 19:59N 63°35' E 009°27'918.4
2018-Jul-16 19:30N 63°40' E 009°44'816.2
2018-Jul-16 19:00N 63°32' E 009°51'816.1
2018-Jul-16 18:29N 63°28' E 010°07'815.9
2018-Jul-16 18:00N 63°28' E 010°24'2 3.4
2018-Jul-16 17:29N 63°26' E 010°24'0 0.0
2018-Jul-16 16:59N 63°26' E 010°24'0 0.0
2018-Jul-16 16:26N 63°26' E 010°24'0 0.0
2018-Jul-16 15:58N 63°26' E 010°24'0 0.0
2018-Jul-16 15:28N 63°26' E 010°24'0 0.0
2018-Jul-16 14:58N 63°26' E 010°24'0 0.0
2018-Jul-16 14:28N 63°26' E 010°24'0 0.0
2018-Jul-16 13:58N 63°26' E 010°24'0 0.0
2018-Jul-16 13:30N 63°26' E 010°24'0 0.0
2018-Jul-16 13:00N 63°26' E 010°24'0 0.0
2018-Jul-16 12:30N 63°26' E 010°24'0 0.0
2018-Jul-16 12:00N 63°26' E 010°24'0 0.0
2018-Jul-16 11:30N 63°26' E 010°24'0 0.0
2018-Jul-16 11:00N 63°26' E 010°24'0 0.3
2018-Jul-16 10:31N 63°26' E 010°24'510.2
2018-Jul-16 10:00N 63°28' E 010°13'917.5
2018-Jul-16 09:30N 63°30' E 009°54'917.9
2018-Jul-16 09:00N 63°39' E 009°47'815.7
2018-Jul-16 08:29N 63°37' E 009°29'714.3
2018-Jul-16 08:00N 63°40' E 009°15'714.4
2018-Jul-16 07:30N 63°47' E 009°16'1018.6
2018-Jul-16 06:59N 63°56' E 009°22'918.1
2018-Jul-16 06:29N 64°05' E 009°31'919.3
2018-Jul-16 06:00N 64°13' E 009°39'13420.8
2018-Jul-15 23:34N 66°21' E 011°11'220.6
2018-Jul-15 23:28N 66°23' E 011°13'920.4
2018-Jul-15 23:00N 66°32' E 011°22'1020.5
2018-Jul-15 22:30N 66°42' E 011°31'4920.3
2018-Jul-15 20:06N 67°24' E 012°32'320.6
2018-Jul-15 19:59N 67°26' E 012°36'1021.1
2018-Jul-15 19:30N 67°35' E 012°50'1020.9
2018-Jul-15 19:00N 67°44' E 013°04'1121.0
2018-Jul-15 18:29N 67°53' E 013°19'1020.1
2018-Jul-15 18:00N 68°01' E 013°33'510.4
2018-Jul-15 17:29N 68°07' E 013°36'0 0.2
2018-Jul-15 16:58N 68°07' E 013°36'0 0.1
2018-Jul-15 16:28N 68°07' E 013°36'0 0.0
2018-Jul-15 15:58N 68°07' E 013°36'0 0.0
2018-Jul-15 15:30N 68°07' E 013°36'0 0.0
2018-Jul-15 15:00N 68°07' E 013°36'0 0.0
2018-Jul-15 14:30N 68°07' E 013°36'0 0.0
2018-Jul-15 14:00N 68°07' E 013°36'0 0.0
2018-Jul-15 13:30N 68°07' E 013°36'0 0.0
2018-Jul-15 12:56N 68°07' E 013°36'0 0.0
2018-Jul-15 12:29N 68°07' E 013°36'0 0.0
2018-Jul-15 11:59N 68°07' E 013°36'0 0.0
2018-Jul-15 11:29N 68°07' E 013°36'0 0.0
2018-Jul-15 10:58N 68°07' E 013°36'0 0.0
2018-Jul-15 10:28N 68°07' E 013°36'0 0.0
2018-Jul-15 09:58N 68°07' E 013°36'0 0.1
2018-Jul-15 09:28N 68°07' E 013°36'0 0.1
2018-Jul-15 08:58N 68°07' E 013°36'0 0.2
2018-Jul-15 08:30N 68°07' E 013°36'0 0.0
2018-Jul-15 08:00N 68°07' E 013°35'0 0.0
2018-Jul-15 07:30N 68°07' E 013°35'0 0.0
2018-Jul-15 07:00N 68°07' E 013°36'0 0.0
2018-Jul-15 06:30N 68°07' E 013°35'0 0.1
2018-Jul-15 06:00N 68°07' E 013°36'0 0.2
2018-Jul-15 05:30N 68°07' E 013°35'510.4
2018-Jul-15 05:00N 68°01' E 013°34'612.3
2018-Jul-15 04:30N 67°57' E 013°23'1019.3
2018-Jul-15 03:59N 67°51' E 013°01'816.1
2018-Jul-15 03:29N 67°50' E 012°40'815.7
2018-Jul-15 03:00N 67°57' E 012°40'917.8
2018-Jul-15 02:30N 68°06' E 012°46'918.1
2018-Jul-15 01:59N 68°15' E 012°56'918.4
2018-Jul-15 01:29N 68°23' E 013°06'918.5
2018-Jul-15 00:59N 68°31' E 013°18'918.5
2018-Jul-15 00:30N 68°39' E 013°29'918.7
2018-Jul-15 00:00N 68°47' E 013°42'918.9
2018-Jul-14 23:30N 68°55' E 013°56'1019.1
2018-Jul-14 23:00N 69°02' E 014°13'918.1
2018-Jul-14 22:29N 69°09' E 014°30'917.7
2018-Jul-14 22:00N 69°16' E 014°47'917.9
2018-Jul-14 21:30N 69°22' E 015°05'918.5
2018-Jul-14 21:00N 69°28' E 015°25'1019.3
2018-Jul-14 20:29N 69°33' E 015°48'919.2
2018-Jul-14 20:00N 69°37' E 016°13'1018.5
2018-Jul-14 19:29N 69°41' E 016°38'1019.0
2018-Jul-14 18:59N 69°45' E 017°03'1018.4
2018-Jul-14 18:28N 69°45' E 017°31'918.8
2018-Jul-14 17:59N 69°45' E 017°57'612.7
2018-Jul-14 17:30N 69°47' E 018°14'815.8
2018-Jul-14 17:00N 69°49' E 018°36'611.1
2018-Jul-14 16:30N 69°54' E 018°39'713.6
2018-Jul-14 16:00N 69°51' E 018°56'713.9
2018-Jul-14 15:29N 69°44' E 019°03'4 7.5
2018-Jul-14 15:00N 69°41' E 018°60'0 0.0
2018-Jul-14 14:30N 69°41' E 018°60'0 0.0
2018-Jul-14 13:29N 69°41' E 018°60'0 0.0
2018-Jul-14 12:59N 69°41' E 018°60'0 0.0
2018-Jul-14 12:29N 69°41' E 018°60'0 0.0
2018-Jul-14 11:59N 69°41' E 018°60'0 0.0
2018-Jul-14 11:28N 69°41' E 018°60'0 0.0
2018-Jul-14 10:58N 69°41' E 018°60'0 0.0
2018-Jul-14 10:28N 69°41' E 018°60'0 0.0
2018-Jul-14 09:58N 69°41' E 018°60'0 0.0
2018-Jul-14 09:31N 69°41' E 018°60'0 0.0
2018-Jul-14 09:00N 69°41' E 018°60'0 0.0
2018-Jul-14 08:30N 69°41' E 018°60'0 0.0
2018-Jul-14 08:00N 69°41' E 018°60'0 0.0
2018-Jul-14 07:30N 69°41' E 018°60'0 0.0
2018-Jul-14 06:59N 69°41' E 018°60'0 0.0
2018-Jul-14 06:29N 69°41' E 018°60'0 0.0
2018-Jul-14 05:59N 69°41' E 018°60'0 0.7
2018-Jul-14 05:30N 69°40' E 018°60'4 8.0
2018-Jul-14 05:00N 69°44' E 019°03'612.5
2018-Jul-14 04:30N 69°48' E 019°18'815.0
2018-Jul-14 03:59N 69°50' E 019°40'714.8
2018-Jul-14 03:30N 69°55' E 019°55'816.5
2018-Jul-14 03:00N 70°02' E 020°07'917.2
2018-Jul-14 02:30N 70°09' E 020°19'816.4
2018-Jul-14 02:00N 70°16' E 020°34'816.7
2018-Jul-14 01:30N 70°20' E 020°56'816.6
2018-Jul-14 01:00N 70°24' E 021°17'816.4
2018-Jul-14 00:30N 70°26' E 021°41'816.5
2018-Jul-14 00:00N 70°27' E 022°05'917.2
2018-Jul-13 23:30N 70°28' E 022°31'816.4
2018-Jul-13 23:00N 70°30' E 022°55'816.8
2018-Jul-13 22:30N 70°36' E 023°13'917.1
2018-Jul-13 21:59N 70°43' E 023°31'817.3
2018-Jul-13 21:30N 70°48' E 023°49'917.4
2018-Jul-13 21:00N 70°54' E 024°09'917.2
2018-Jul-13 20:30N 71°01' E 024°26'815.9
2018-Jul-13 20:00N 71°00' E 024°51'918.1
2018-Jul-13 19:30N 70°59' E 025°18'817.0
2018-Jul-13 19:00N 70°55' E 025°41'610.6
2018-Jul-13 18:29N 70°58' E 025°56'0 0.3
2018-Jul-13 17:59N 70°58' E 025°56'0 0.0
2018-Jul-13 17:29N 70°58' E 025°56'0 0.0
2018-Jul-13 16:59N 70°58' E 025°56'0 0.0
2018-Jul-13 16:28N 70°58' E 025°56'0 0.0
2018-Jul-13 15:58N 70°58' E 025°56'0 0.0
2018-Jul-13 15:28N 70°58' E 025°56'0 0.0
2018-Jul-13 15:00N 70°58' E 025°56'0 0.1
2018-Jul-13 14:28N 70°58' E 025°56'0 0.0
2018-Jul-13 13:30N 70°58' E 025°56'0 0.0
2018-Jul-13 13:00N 70°58' E 025°56'0 0.1
2018-Jul-13 12:30N 70°58' E 025°56'0 0.2
2018-Jul-13 11:59N 70°59' E 025°56'0 0.1
2018-Jul-13 11:29N 70°59' E 025°56'0 0.1
2018-Jul-13 11:00N 70°59' E 025°56'0 0.0
2018-Jul-13 10:29N 70°59' E 025°56'0 0.0
2018-Jul-13 09:59N 70°59' E 025°56'0 0.0
2018-Jul-13 09:29N 70°59' E 025°56'0 0.0
2018-Jul-13 08:59N 70°59' E 025°56'0 0.0
2018-Jul-13 08:29N 70°59' E 025°56'0 0.1
2018-Jul-13 08:00N 70°58' E 025°56'2 4.2
2018-Jul-13 07:30N 70°58' E 026°02'612.3
2018-Jul-13 07:00N 71°01' E 026°18'713.1
2018-Jul-13 06:30N 71°07' E 026°11'714.1
2018-Jul-13 06:00N 71°12' E 025°55'713.6
2018-Jul-13 05:30N 71°13' E 025°34'714.0
2018-Jul-13 05:00N 71°12' E 025°12'714.6
2018-Jul-13 04:30N 71°12' E 024°50'815.0
2018-Jul-13 04:00N 71°11' E 024°27'815.4
2018-Jul-13 03:30N 71°11' E 024°03'815.3
2018-Jul-13 03:00N 71°11' E 023°39'714.5
2018-Jul-13 02:30N 71°09' E 023°17'815.1
2018-Jul-13 02:00N 71°06' E 022°56'815.2
2018-Jul-13 01:30N 71°02' E 022°36'917.3
2018-Jul-13 00:59N 70°58' E 022°11'1020.6
2018-Jul-13 00:30N 70°53' E 021°44'2520.1
2018-Jul-12 23:13N 70°41' E 020°36'520.4
2018-Jul-12 23:00N 70°39' E 020°24'1020.2
2018-Jul-12 22:30N 70°34' E 019°57'1020.4
2018-Jul-12 22:00N 70°29' E 019°30'1020.6
2018-Jul-12 21:30N 70°24' E 019°03'1020.6
2018-Jul-12 21:00N 70°20' E 018°36'1019.9
2018-Jul-12 20:30N 70°13' E 018°13'1019.6
2018-Jul-12 20:00N 70°07' E 017°52'1019.2
2018-Jul-12 19:30N 70°00' E 017°31'1019.1
2018-Jul-12 18:59N 69°53' E 017°11'918.6
2018-Jul-12 18:30N 69°47' E 016°52'1019.5
2018-Jul-12 17:59N 69°40' E 016°30'1020.1
2018-Jul-12 17:30N 69°34' E 016°10'1020.6
2018-Jul-12 17:00N 69°27' E 015°49'1019.7
2018-Jul-12 16:29N 69°20' E 015°27'1019.4
2018-Jul-12 15:59N 69°14' E 015°06'919.3
2018-Jul-12 15:31N 69°07' E 014°49'1019.3
2018-Jul-12 15:00N 68°59' E 014°31'1019.0
2018-Jul-12 14:30N 68°52' E 014°15'1019.9
2018-Jul-12 14:00N 68°44' E 013°59'1019.9
2018-Jul-12 13:30N 68°36' E 013°42'1020.4
2018-Jul-12 13:00N 68°28' E 013°24'1121.1
2018-Jul-12 12:30N 68°20' E 013°06'1121.2
2018-Jul-12 12:00N 68°11' E 012°48'1121.3
2018-Jul-12 11:29N 68°02' E 012°32'1021.1
2018-Jul-12 11:00N 67°54' E 012°17'  
Track history (hours):
 
Tides and Currents Weather Stations Pressure Air Temp Water Temp Dewpoint Dewpoint Depression Visibility Wind Speed Wind Dir Waves Ship Positions

Costa Pacifica

Last reported at 2018-Jul-22 06:59 UTC. Time now 2018-Jul-22 07:02 UTC.
Position N 54°32' E 018°33'.

Length 290 m; draft 8.3 m.

Type: Ship. MMSI: 247258100.

Date/timePositionNaut miles runAvg speedWind from/ knotsBaromVisibWave heightAir tempDewpointWater temp
2018-Jul-22 06:59N 54°32' E 018°33'0 0.0
2018-Jul-22 06:29N 54°32' E 018°33'0 0.0
2018-Jul-22 05:58N 54°32' E 018°33'0 0.0
2018-Jul-22 05:28N 54°32' E 018°33'0 0.0
2018-Jul-22 04:58N 54°32' E 018°33'0 0.0
2018-Jul-22 04:29N 54°32' E 018°33'1 1.1
2018-Jul-22 04:00N 54°32' E 018°34'4 8.4
2018-Jul-22 03:30N 54°32' E 018°41'4 8.9
2018-Jul-22 03:00N 54°33' E 018°49'713.2
2018-Jul-22 02:30N 54°39' E 018°55'713.1
2018-Jul-22 02:00N 54°45' E 018°59'612.8
2018-Jul-22 01:30N 54°51' E 019°04'612.6
2018-Jul-22 01:00N 54°56' E 019°08'612.4
2018-Jul-22 00:30N 55°01' E 019°01'713.1
2018-Jul-22 00:00N 55°05' E 018°52'612.5
2018-Jul-21 23:30N 55°11' E 018°50'713.0
2018-Jul-21 23:00N 55°17' E 018°56'612.6
2018-Jul-21 22:30N 55°23' E 018°60'713.2
2018-Jul-21 22:00N 55°28' E 018°52'713.2
2018-Jul-21 21:30N 55°33' E 018°44'612.0
2018-Jul-21 21:00N 55°38' E 018°49'611.9
2018-Jul-21 20:30N 55°43' E 018°57'612.8
2018-Jul-21 20:00N 55°49' E 018°56'612.4
2018-Jul-21 19:30N 55°55' E 018°53'612.6
2018-Jul-21 19:00N 55°56' E 018°42'612.7
2018-Jul-21 18:30N 55°56' E 018°31'612.8
2018-Jul-21 18:00N 55°56' E 018°19'613.0
2018-Jul-21 17:30N 55°56' E 018°08'612.9
2018-Jul-21 17:00N 55°56' E 017°56'612.9
2018-Jul-21 16:31N 55°55' E 017°45'612.9
2018-Jul-21 16:00N 55°54' E 017°34'612.9
2018-Jul-21 15:30N 55°52' E 017°22'612.8
2018-Jul-21 15:00N 55°51' E 017°11'612.7
2018-Jul-21 14:30N 55°49' E 017°00'1212.5
2018-Jul-21 13:30N 55°46' E 016°39'612.4
2018-Jul-21 13:00N 55°45' E 016°28'612.4
2018-Jul-21 12:30N 55°43' E 016°17'612.5
2018-Jul-21 12:00N 55°42' E 016°07'612.6
2018-Jul-21 11:30N 55°40' E 015°56'612.7
2018-Jul-21 11:00N 55°39' E 015°45'612.6
2018-Jul-21 10:30N 55°37' E 015°34'612.2
2018-Jul-21 10:00N 55°35' E 015°24'612.2
2018-Jul-21 09:30N 55°33' E 015°14'612.8
2018-Jul-21 09:00N 55°30' E 015°04'612.9
2018-Jul-21 08:30N 55°27' E 014°54'612.8
2018-Jul-21 08:00N 55°24' E 014°43'612.4
2018-Jul-21 07:30N 55°20' E 014°35'612.5
2018-Jul-21 07:00N 55°15' E 014°29'612.2
2018-Jul-21 06:30N 55°11' E 014°22'712.6
2018-Jul-21 05:59N 55°05' E 014°15'612.5
2018-Jul-21 05:30N 55°01' E 014°08'612.7
2018-Jul-21 05:00N 54°58' E 013°58'812.7
2018-Jul-21 04:24N 54°56' E 013°45'712.7
2018-Jul-21 03:49N 54°54' E 013°33'412.6
2018-Jul-21 03:30N 54°53' E 013°26'612.4
2018-Jul-21 03:00N 54°51' E 013°16'612.5
2018-Jul-21 02:30N 54°49' E 013°05'612.8
2018-Jul-21 02:00N 54°47' E 012°55'612.8
2018-Jul-21 01:30N 54°45' E 012°44'612.3
2018-Jul-21 01:00N 54°42' E 012°35'612.5
2018-Jul-21 00:30N 54°38' E 012°26'612.4
2018-Jul-21 00:00N 54°35' E 012°18'612.5
2018-Jul-20 23:30N 54°29' E 012°15'611.7
2018-Jul-20 23:00N 54°25' E 012°07'612.6
2018-Jul-20 22:30N 54°25' E 011°57'612.6
2018-Jul-20 22:00N 54°25' E 011°46'713.0
2018-Jul-20 21:30N 54°28' E 011°36'612.9
2018-Jul-20 21:00N 54°31' E 011°26'613.0
2018-Jul-20 20:30N 54°34' E 011°16'612.5
2018-Jul-20 20:00N 54°35' E 011°05'612.8
2018-Jul-20 19:30N 54°35' E 010°54'613.0
2018-Jul-20 19:00N 54°34' E 010°43'612.5
2018-Jul-20 18:30N 54°33' E 010°33'612.6
2018-Jul-20 18:00N 54°30' E 010°23'611.6
2018-Jul-20 17:30N 54°27' E 010°15'8 0.7
2018-Jul-20 06:19N 54°20' E 010°09'0 0.0
2018-Jul-20 05:43N 54°20' E 010°09'0 0.0
2018-Jul-20 05:28N 54°20' E 010°09'0 0.7
2018-Jul-20 05:01N 54°20' E 010°09'4 7.2
2018-Jul-20 04:30N 54°23' E 010°12'611.9
2018-Jul-20 04:00N 54°29' E 010°16'611.1
2018-Jul-20 03:30N 54°31' E 010°24'612.3
2018-Jul-20 03:00N 54°34' E 010°33'611.5
2018-Jul-20 02:30N 54°37' E 010°42'713.1
2018-Jul-20 02:01N 54°41' E 010°50'713.2
2018-Jul-20 01:30N 54°48' E 010°52'713.5
2018-Jul-20 01:00N 54°55' E 010°53'713.6
2018-Jul-20 00:30N 54°60' E 011°01'713.7
2018-Jul-20 00:00N 55°07' E 011°02'613.0
2018-Jul-19 23:30N 55°13' E 011°06'713.7
2018-Jul-19 23:00N 55°19' E 011°02'1713.5
2018-Jul-19 21:46N 55°34' E 010°49'7814.4
2018-Jul-19 16:21N 56°44' E 011°51'919.2
2018-Jul-19 15:54N 56°53' E 011°48'819.3
2018-Jul-19 15:30N 56°60' E 011°43'1019.2
2018-Jul-19 15:00N 57°09' E 011°37'1019.3
2018-Jul-19 14:30N 57°18' E 011°31'1918.9
2018-Jul-19 13:30N 57°34' E 011°12'1019.3
2018-Jul-19 13:00N 57°40' E 010°59'1019.7
2018-Jul-19 12:30N 57°47' E 010°45'1121.7
2018-Jul-19 12:00N 57°48' E 010°25'1020.9
2018-Jul-19 11:30N 57°48' E 010°05'1020.5
2018-Jul-19 11:00N 57°48' E 009°46'1020.1
2018-Jul-19 10:30N 57°47' E 009°27'1020.5
2018-Jul-19 10:00N 57°46' E 009°08'1020.6
2018-Jul-19 09:30N 57°44' E 008°49'1020.2
2018-Jul-19 09:00N 57°42' E 008°30'1720.1
2018-Jul-19 08:08N 57°42' E 007°58'1419.8
2018-Jul-19 07:26N 57°42' E 007°32'919.6
2018-Jul-19 07:00N 57°42' E 007°16'2818.8
2018-Jul-19 05:30N 57°47' E 006°24'2720.1
2018-Jul-19 04:08N 58°05' E 005°46'919.7
2018-Jul-19 03:42N 58°11' E 005°32'419.9
2018-Jul-19 03:30N 58°13' E 005°27'1120.3
2018-Jul-19 02:57N 58°21' E 005°12'919.7
2018-Jul-19 02:30N 58°27' E 005°01'1119.9
2018-Jul-19 01:57N 58°35' E 004°46'920.1
2018-Jul-19 01:30N 58°42' E 004°35'11317.8
2018-Jul-18 19:11N 60°35' E 004°22'319.3
2018-Jul-18 19:00N 60°37' E 004°26'918.6
2018-Jul-18 18:30N 60°45' E 004°38'714.2
2018-Jul-18 18:00N 60°41' E 004°50'918.9
2018-Jul-18 17:30N 60°32' E 004°57'917.4
2018-Jul-18 17:00N 60°25' E 005°06'611.2
2018-Jul-18 16:30N 60°24' E 005°17'1 1.7
2018-Jul-18 16:00N 60°24' E 005°19'0 0.0
2018-Jul-18 15:30N 60°24' E 005°19'0 0.0
2018-Jul-18 15:00N 60°24' E 005°19'0 0.0
2018-Jul-18 14:29N 60°24' E 005°19'0 0.0
2018-Jul-18 13:29N 60°24' E 005°19'0 0.0
2018-Jul-18 12:59N 60°24' E 005°19'0 0.0
2018-Jul-18 12:29N 60°24' E 005°19'0 0.0
2018-Jul-18 11:58N 60°24' E 005°19'0 0.0
2018-Jul-18 11:28N 60°24' E 005°19'0 0.0
2018-Jul-18 10:28N 60°24' E 005°19'0 0.0
2018-Jul-18 10:01N 60°24' E 005°19'0 0.0
2018-Jul-18 09:30N 60°24' E 005°19'0 0.0
2018-Jul-18 09:00N 60°24' E 005°19'0 0.0
2018-Jul-18 08:30N 60°24' E 005°19'0 0.0
2018-Jul-18 08:00N 60°24' E 005°19'0 0.0
2018-Jul-18 07:29N 60°24' E 005°19'0 0.0
2018-Jul-18 06:59N 60°24' E 005°19'0 0.0
2018-Jul-18 06:29N 60°24' E 005°19'0 0.0
2018-Jul-18 05:59N 60°24' E 005°19'0 0.0
2018-Jul-18 05:30N 60°24' E 005°19'1 2.3
2018-Jul-18 05:00N 60°24' E 005°17'4 8.9
2018-Jul-18 04:30N 60°24' E 005°08'611.8
2018-Jul-18 03:59N 60°29' E 004°60'918.3
2018-Jul-18 03:30N 60°37' E 004°53'816.5
2018-Jul-18 03:00N 60°44' E 004°44'612.7
2018-Jul-18 02:29N 60°47' E 004°32'816.4
2018-Jul-18 02:00N 60°53' E 004°23'918.4
2018-Jul-18 01:30N 61°02' E 004°19'918.5
2018-Jul-18 01:00N 61°12' E 004°20'918.5
2018-Jul-18 00:30N 61°21' E 004°21'1018.6
2018-Jul-18 00:00N 61°30' E 004°21'918.7
2018-Jul-17 23:30N 61°39' E 004°23'1018.8
2018-Jul-17 22:59N 61°48' E 004°30'919.0
2018-Jul-17 22:30N 61°57' E 004°38'814.9
2018-Jul-17 22:00N 62°04' E 004°44'612.7
2018-Jul-17 21:30N 62°10' E 004°49'612.7
2018-Jul-17 20:59N 62°15' E 004°57'613.1
2018-Jul-17 20:30N 62°20' E 005°07'612.8
2018-Jul-17 19:59N 62°24' E 005°17'613.1
2018-Jul-17 19:30N 62°28' E 005°28'713.2
2018-Jul-17 19:00N 62°30' E 005°41'917.5
2018-Jul-17 18:30N 62°27' E 005°59'511.0
2018-Jul-17 18:00N 62°30' E 006°09'611.9
2018-Jul-17 17:30N 62°36' E 006°09'3 5.8
2018-Jul-17 17:00N 62°38' E 006°12'815.3
2018-Jul-17 16:30N 62°38' E 006°29'1019.2
2018-Jul-17 16:00N 62°40' E 006°49'917.1
2018-Jul-17 15:30N 62°40' E 007°08'10 0.9
2018-Jul-17 04:33N 62°35' E 007°26'315.6
2018-Jul-17 04:22N 62°37' E 007°22'717.5
2018-Jul-17 04:00N 62°40' E 007°09'816.0
2018-Jul-17 03:30N 62°46' E 006°57'714.4
2018-Jul-17 03:00N 62°53' E 006°56'714.6
2018-Jul-17 02:30N 62°59' E 006°46'714.0
2018-Jul-17 02:00N 63°05' E 006°40'612.9
2018-Jul-17 01:30N 63°10' E 006°31'713.2
2018-Jul-17 01:00N 63°15' E 006°40'713.5
2018-Jul-17 00:30N 63°20' E 006°51'1312.6
2018-Jul-16 23:30N 63°15' E 007°17'713.4
2018-Jul-16 23:00N 63°15' E 007°32'917.6
2018-Jul-16 22:30N 63°13' E 007°51'918.9
2018-Jul-16 22:00N 63°17' E 008°10'1019.0
2018-Jul-16 21:30N 63°23' E 008°26'1019.3
2018-Jul-16 21:00N 63°27' E 008°46'1019.6
2018-Jul-16 20:30N 63°30' E 009°07'1019.4
2018-Jul-16 19:59N 63°35' E 009°27'918.4
2018-Jul-16 19:30N 63°40' E 009°44'816.2
2018-Jul-16 19:00N 63°32' E 009°51'816.1
2018-Jul-16 18:29N 63°28' E 010°07'815.9
2018-Jul-16 18:00N 63°28' E 010°24'2 3.4
2018-Jul-16 17:29N 63°26' E 010°24'0 0.0
2018-Jul-16 16:59N 63°26' E 010°24'0 0.0
2018-Jul-16 16:26N 63°26' E 010°24'0 0.0
2018-Jul-16 15:58N 63°26' E 010°24'0 0.0
2018-Jul-16 15:28N 63°26' E 010°24'0 0.0
2018-Jul-16 14:58N 63°26' E 010°24'0 0.0
2018-Jul-16 14:28N 63°26' E 010°24'0 0.0
2018-Jul-16 13:58N 63°26' E 010°24'0 0.0
2018-Jul-16 13:30N 63°26' E 010°24'0 0.0
2018-Jul-16 13:00N 63°26' E 010°24'0 0.0
2018-Jul-16 12:30N 63°26' E 010°24'0 0.0
2018-Jul-16 12:00N 63°26' E 010°24'0 0.0
2018-Jul-16 11:30N 63°26' E 010°24'0 0.0
2018-Jul-16 11:00N 63°26' E 010°24'0 0.3
2018-Jul-16 10:31N 63°26' E 010°24'510.2
2018-Jul-16 10:00N 63°28' E 010°13'917.5
2018-Jul-16 09:30N 63°30' E 009°54'917.9
2018-Jul-16 09:00N 63°39' E 009°47'815.7
2018-Jul-16 08:29N 63°37' E 009°29'714.3
2018-Jul-16 08:00N 63°40' E 009°15'714.4
2018-Jul-16 07:30N 63°47' E 009°16'1018.6
2018-Jul-16 06:59N 63°56' E 009°22'918.1
2018-Jul-16 06:29N 64°05' E 009°31'919.3
2018-Jul-16 06:00N 64°13' E 009°39'13420.8
2018-Jul-15 23:34N 66°21' E 011°11'220.6
2018-Jul-15 23:28N 66°23' E 011°13'920.4
2018-Jul-15 23:00N 66°32' E 011°22'1020.5
2018-Jul-15 22:30N 66°42' E 011°31'4920.3
2018-Jul-15 20:06N 67°24' E 012°32'320.6
2018-Jul-15 19:59N 67°26' E 012°36'1021.1
2018-Jul-15 19:30N 67°35' E 012°50'1020.9
2018-Jul-15 19:00N 67°44' E 013°04'1121.0
2018-Jul-15 18:29N 67°53' E 013°19'1020.1
2018-Jul-15 18:00N 68°01' E 013°33'510.4
2018-Jul-15 17:29N 68°07' E 013°36'0 0.2
2018-Jul-15 16:58N 68°07' E 013°36'0 0.1
2018-Jul-15 16:28N 68°07' E 013°36'0 0.0
2018-Jul-15 15:58N 68°07' E 013°36'0 0.0
2018-Jul-15 15:30N 68°07' E 013°36'0 0.0
2018-Jul-15 15:00N 68°07' E 013°36'0 0.0
2018-Jul-15 14:30N 68°07' E 013°36'0 0.0
2018-Jul-15 14:00N 68°07' E 013°36'0 0.0
2018-Jul-15 13:30N 68°07' E 013°36'0 0.0
2018-Jul-15 12:56N 68°07' E 013°36'0 0.0
2018-Jul-15 12:29N 68°07' E 013°36'0 0.0
2018-Jul-15 11:59N 68°07' E 013°36'0 0.0
2018-Jul-15 11:29N 68°07' E 013°36'0 0.0
2018-Jul-15 10:58N 68°07' E 013°36'0 0.0
2018-Jul-15 10:28N 68°07' E 013°36'0 0.0
2018-Jul-15 09:58N 68°07' E 013°36'0 0.1
2018-Jul-15 09:28N 68°07' E 013°36'0 0.1
2018-Jul-15 08:58N 68°07' E 013°36'0 0.2
2018-Jul-15 08:30N 68°07' E 013°36'0 0.0
2018-Jul-15 08:00N 68°07' E 013°35'0 0.0
2018-Jul-15 07:30N 68°07' E 013°35'0 0.0
2018-Jul-15 07:00N 68°07' E 013°36'0 0.0
2018-Jul-15 06:30N 68°07' E 013°35'0 0.1
2018-Jul-15 06:00N 68°07' E 013°36'0 0.2
2018-Jul-15 05:30N 68°07' E 013°35'510.4
2018-Jul-15 05:00N 68°01' E 013°34'612.3
2018-Jul-15 04:30N 67°57' E 013°23'1019.3
2018-Jul-15 03:59N 67°51' E 013°01'816.1
2018-Jul-15 03:29N 67°50' E 012°40'815.7
2018-Jul-15 03:00N 67°57' E 012°40'917.8
2018-Jul-15 02:30N 68°06' E 012°46'918.1
2018-Jul-15 01:59N 68°15' E 012°56'918.4
2018-Jul-15 01:29N 68°23' E 013°06'918.5
2018-Jul-15 00:59N 68°31' E 013°18'918.5
2018-Jul-15 00:30N 68°39' E 013°29'918.7
2018-Jul-15 00:00N 68°47' E 013°42'918.9
2018-Jul-14 23:30N 68°55' E 013°56'1019.1
2018-Jul-14 23:00N 69°02' E 014°13'918.1
2018-Jul-14 22:29N 69°09' E 014°30'917.7
2018-Jul-14 22:00N 69°16' E 014°47'917.9
2018-Jul-14 21:30N 69°22' E 015°05'918.5
2018-Jul-14 21:00N 69°28' E 015°25'1019.3
2018-Jul-14 20:29N 69°33' E 015°48'919.2
2018-Jul-14 20:00N 69°37' E 016°13'1018.5
2018-Jul-14 19:29N 69°41' E 016°38'1019.0
2018-Jul-14 18:59N 69°45' E 017°03'1018.4
2018-Jul-14 18:28N 69°45' E 017°31'918.8
2018-Jul-14 17:59N 69°45' E 017°57'612.7
2018-Jul-14 17:30N 69°47' E 018°14'815.8
2018-Jul-14 17:00N 69°49' E 018°36'611.1
2018-Jul-14 16:30N 69°54' E 018°39'713.6
2018-Jul-14 16:00N 69°51' E 018°56'713.9
2018-Jul-14 15:29N 69°44' E 019°03'4 7.5
2018-Jul-14 15:00N 69°41' E 018°60'0 0.0
2018-Jul-14 14:30N 69°41' E 018°60'0 0.0
2018-Jul-14 13:29N 69°41' E 018°60'0 0.0
2018-Jul-14 12:59N 69°41' E 018°60'0 0.0
2018-Jul-14 12:29N 69°41' E 018°60'0 0.0
2018-Jul-14 11:59N 69°41' E 018°60'0 0.0
2018-Jul-14 11:28N 69°41' E 018°60'0 0.0
2018-Jul-14 10:58N 69°41' E 018°60'0 0.0
2018-Jul-14 10:28N 69°41' E 018°60'0 0.0
2018-Jul-14 09:58N 69°41' E 018°60'0 0.0
2018-Jul-14 09:31N 69°41' E 018°60'0 0.0
2018-Jul-14 09:00N 69°41' E 018°60'0 0.0
2018-Jul-14 08:30N 69°41' E 018°60'0 0.0
2018-Jul-14 08:00N 69°41' E 018°60'0 0.0
2018-Jul-14 07:30N 69°41' E 018°60'0 0.0
2018-Jul-14 06:59N 69°41' E 018°60'0 0.0
2018-Jul-14 06:29N 69°41' E 018°60'0 0.0
2018-Jul-14 05:59N 69°41' E 018°60'0 0.7
2018-Jul-14 05:30N 69°40' E 018°60'4 8.0
2018-Jul-14 05:00N 69°44' E 019°03'612.5
2018-Jul-14 04:30N 69°48' E 019°18'815.0
2018-Jul-14 03:59N 69°50' E 019°40'714.8
2018-Jul-14 03:30N 69°55' E 019°55'816.5
2018-Jul-14 03:00N 70°02' E 020°07'917.2
2018-Jul-14 02:30N 70°09' E 020°19'816.4
2018-Jul-14 02:00N 70°16' E 020°34'816.7
2018-Jul-14 01:30N 70°20' E 020°56'816.6
2018-Jul-14 01:00N 70°24' E 021°17'816.4
2018-Jul-14 00:30N 70°26' E 021°41'816.5
2018-Jul-14 00:00N 70°27' E 022°05'917.2
2018-Jul-13 23:30N 70°28' E 022°31'816.4
2018-Jul-13 23:00N 70°30' E 022°55'816.8
2018-Jul-13 22:30N 70°36' E 023°13'917.1
2018-Jul-13 21:59N 70°43' E 023°31'817.3
2018-Jul-13 21:30N 70°48' E 023°49'917.4
2018-Jul-13 21:00N 70°54' E 024°09'917.2
2018-Jul-13 20:30N 71°01' E 024°26'815.9
2018-Jul-13 20:00N 71°00' E 024°51'918.1
2018-Jul-13 19:30N 70°59' E 025°18'817.0
2018-Jul-13 19:00N 70°55' E 025°41'610.6
2018-Jul-13 18:29N 70°58' E 025°56'0 0.3
2018-Jul-13 17:59N 70°58' E 025°56'0 0.0
2018-Jul-13 17:29N 70°58' E 025°56'0 0.0
2018-Jul-13 16:59N 70°58' E 025°56'0 0.0
2018-Jul-13 16:28N 70°58' E 025°56'0 0.0
2018-Jul-13 15:58N 70°58' E 025°56'0 0.0
2018-Jul-13 15:28N 70°58' E 025°56'0 0.0
2018-Jul-13 15:00N 70°58' E 025°56'0 0.1
2018-Jul-13 14:28N 70°58' E 025°56'0 0.0
2018-Jul-13 13:30N 70°58' E 025°56'0 0.0
2018-Jul-13 13:00N 70°58' E 025°56'0 0.1
2018-Jul-13 12:30N 70°58' E 025°56'0 0.2
2018-Jul-13 11:59N 70°59' E 025°56'0 0.1
2018-Jul-13 11:29N 70°59' E 025°56'0 0.1
2018-Jul-13 11:00N 70°59' E 025°56'0 0.0
2018-Jul-13 10:29N 70°59' E 025°56'0 0.0
2018-Jul-13 09:59N 70°59' E 025°56'0 0.0
2018-Jul-13 09:29N 70°59' E 025°56'0 0.0
2018-Jul-13 08:59N 70°59' E 025°56'0 0.0
2018-Jul-13 08:29N 70°59' E 025°56'0 0.1
2018-Jul-13 08:00N 70°58' E 025°56'2 4.2
2018-Jul-13 07:30N 70°58' E 026°02'612.3
2018-Jul-13 07:00N 71°01' E 026°18'713.1
2018-Jul-13 06:30N 71°07' E 026°11'714.1
2018-Jul-13 06:00N 71°12' E 025°55'713.6
2018-Jul-13 05:30N 71°13' E 025°34'714.0
2018-Jul-13 05:00N 71°12' E 025°12'714.6
2018-Jul-13 04:30N 71°12' E 024°50'815.0
2018-Jul-13 04:00N 71°11' E 024°27'815.4
2018-Jul-13 03:30N 71°11' E 024°03'815.3
2018-Jul-13 03:00N 71°11' E 023°39'714.5
2018-Jul-13 02:30N 71°09' E 023°17'815.1
2018-Jul-13 02:00N 71°06' E 022°56'815.2
2018-Jul-13 01:30N 71°02' E 022°36'917.3
2018-Jul-13 00:59N 70°58' E 022°11'1020.6
2018-Jul-13 00:30N 70°53' E 021°44'2520.1
2018-Jul-12 23:13N 70°41' E 020°36'520.4
2018-Jul-12 23:00N 70°39' E 020°24'1020.2
2018-Jul-12 22:30N 70°34' E 019°57'1020.4
2018-Jul-12 22:00N 70°29' E 019°30'1020.6
2018-Jul-12 21:30N 70°24' E 019°03'1020.6
2018-Jul-12 21:00N 70°20' E 018°36'1019.9
2018-Jul-12 20:30N 70°13' E 018°13'1019.6
2018-Jul-12 20:00N 70°07' E 017°52'1019.2
2018-Jul-12 19:30N 70°00' E 017°31'1019.1
2018-Jul-12 18:59N 69°53' E 017°11'918.6
2018-Jul-12 18:30N 69°47' E 016°52'1019.5
2018-Jul-12 17:59N 69°40' E 016°30'1020.1
2018-Jul-12 17:30N 69°34' E 016°10'1020.6
2018-Jul-12 17:00N 69°27' E 015°49'1019.7
2018-Jul-12 16:29N 69°20' E 015°27'1019.4
2018-Jul-12 15:59N 69°14' E 015°06'919.3
2018-Jul-12 15:31N 69°07' E 014°49'1019.3
2018-Jul-12 15:00N 68°59' E 014°31'1019.0
2018-Jul-12 14:30N 68°52' E 014°15'1019.9
2018-Jul-12 14:00N 68°44' E 013°59'1019.9
2018-Jul-12 13:30N 68°36' E 013°42'1020.4
2018-Jul-12 13:00N 68°28' E 013°24'1121.1
2018-Jul-12 12:30N 68°20' E 013°06'1121.2
2018-Jul-12 12:00N 68°11' E 012°48'1121.3
2018-Jul-12 11:29N 68°02' E 012°32'1021.1
2018-Jul-12 11:00N 67°54' E 012°17'  

Dump ship's entire track history